sensor_id;sensor_type;location;lat;lon;timestamp;P1;durP1;ratioP1;P2;durP2;ratioP2
21034;SDS011;10676;50.848;3.272;2023-04-06T00:01:47;1999.90;;;999.90;;
21034;SDS011;10676;50.848;3.272;2023-04-06T00:04:12;1999.90;;;999.90;;
21034;SDS011;10676;50.848;3.272;2023-04-06T00:06:38;1999.90;;;999.90;;
21034;SDS011;10676;50.848;3.272;2023-04-06T00:09:04;1999.90;;;999.90;;
21034;SDS011;10676;50.848;3.272;2023-04-06T00:11:29;1999.90;;;999.90;;
21034;SDS011;10676;50.848;3.272;2023-04-06T00:13:55;1999.90;;;999.90;;
21034;SDS011;10676;50.848;3.272;2023-04-06T00:16:21;1999.90;;;999.90;;
21034;SDS011;10676;50.848;3.272;2023-04-06T00:18:46;1999.90;;;999.90;;
21034;SDS011;10676;50.848;3.272;2023-04-06T00:21:12;1999.90;;;999.90;;
21034;SDS011;10676;50.848;3.272;2023-04-06T00:23:39;1999.90;;;999.90;;
21034;SDS011;10676;50.848;3.272;2023-04-06T00:26:06;1999.90;;;999.90;;
21034;SDS011;10676;50.848;3.272;2023-04-06T00:28:31;1999.90;;;999.90;;
21034;SDS011;10676;50.848;3.272;2023-04-06T00:30:57;1999.90;;;999.90;;
21034;SDS011;10676;50.848;3.272;2023-04-06T00:33:23;1999.90;;;999.90;;
21034;SDS011;10676;50.848;3.272;2023-04-06T00:35:49;1999.90;;;999.90;;
21034;SDS011;10676;50.848;3.272;2023-04-06T00:38:15;1999.90;;;999.90;;
21034;SDS011;10676;50.848;3.272;2023-04-06T00:40:41;1999.90;;;999.90;;
21034;SDS011;10676;50.848;3.272;2023-04-06T00:43:09;1999.90;;;999.90;;
21034;SDS011;10676;50.848;3.272;2023-04-06T00:45:35;1999.90;;;999.90;;
21034;SDS011;10676;50.848;3.272;2023-04-06T00:48:03;1999.90;;;999.90;;
21034;SDS011;10676;50.848;3.272;2023-04-06T00:50:30;1999.90;;;999.90;;
21034;SDS011;10676;50.848;3.272;2023-04-06T00:52:55;1999.90;;;999.90;;
21034;SDS011;10676;50.848;3.272;2023-04-06T00:55:21;1999.90;;;999.90;;
21034;SDS011;10676;50.848;3.272;2023-04-06T00:57:47;1999.90;;;999.90;;
21034;SDS011;10676;50.848;3.272;2023-04-06T01:00:13;1999.90;;;999.90;;
21034;SDS011;10676;50.848;3.272;2023-04-06T01:02:40;1999.90;;;999.90;;
21034;SDS011;10676;50.848;3.272;2023-04-06T01:05:05;1999.90;;;999.90;;
21034;SDS011;10676;50.848;3.272;2023-04-06T01:07:31;1999.90;;;999.90;;
21034;SDS011;10676;50.848;3.272;2023-04-06T01:09:57;1999.90;;;999.90;;
21034;SDS011;10676;50.848;3.272;2023-04-06T01:12:23;1999.90;;;999.90;;
21034;SDS011;10676;50.848;3.272;2023-04-06T01:14:49;1999.90;;;999.90;;
21034;SDS011;10676;50.848;3.272;2023-04-06T01:17:15;1999.90;;;999.90;;
21034;SDS011;10676;50.848;3.272;2023-04-06T01:19:41;1999.90;;;999.90;;
21034;SDS011;10676;50.848;3.272;2023-04-06T01:22:07;1999.90;;;999.90;;
21034;SDS011;10676;50.848;3.272;2023-04-06T01:24:33;1999.90;;;999.90;;
21034;SDS011;10676;50.848;3.272;2023-04-06T01:26:58;1999.90;;;999.90;;
21034;SDS011;10676;50.848;3.272;2023-04-06T01:29:25;1999.90;;;999.90;;
21034;SDS011;10676;50.848;3.272;2023-04-06T01:31:51;1999.90;;;999.90;;
21034;SDS011;10676;50.848;3.272;2023-04-06T01:34:17;1999.90;;;999.90;;
21034;SDS011;10676;50.848;3.272;2023-04-06T01:36:43;1999.90;;;999.90;;
21034;SDS011;10676;50.848;3.272;2023-04-06T01:39:08;1999.90;;;999.90;;
21034;SDS011;10676;50.848;3.272;2023-04-06T01:41:34;1999.90;;;999.90;;
21034;SDS011;10676;50.848;3.272;2023-04-06T01:44:01;1999.90;;;999.90;;
21034;SDS011;10676;50.848;3.272;2023-04-06T01:46:27;1999.90;;;999.90;;
21034;SDS011;10676;50.848;3.272;2023-04-06T01:48:52;1999.90;;;999.90;;
21034;SDS011;10676;50.848;3.272;2023-04-06T01:51:18;1999.90;;;999.90;;
21034;SDS011;10676;50.848;3.272;2023-04-06T01:53:44;1999.90;;;999.90;;
21034;SDS011;10676;50.848;3.272;2023-04-06T01:56:10;1999.90;;;999.90;;
21034;SDS011;10676;50.848;3.272;2023-04-06T01:58:36;1999.90;;;999.90;;
21034;SDS011;10676;50.848;3.272;2023-04-06T02:01:01;1999.90;;;999.90;;
21034;SDS011;10676;50.848;3.272;2023-04-06T02:03:27;1999.90;;;999.90;;
21034;SDS011;10676;50.848;3.272;2023-04-06T02:05:53;1999.90;;;999.90;;
21034;SDS011;10676;50.848;3.272;2023-04-06T02:08:18;1999.90;;;999.90;;
21034;SDS011;10676;50.848;3.272;2023-04-06T02:10:44;1999.90;;;999.90;;
21034;SDS011;10676;50.848;3.272;2023-04-06T02:13:10;1999.90;;;999.90;;
21034;SDS011;10676;50.848;3.272;2023-04-06T02:15:35;1999.90;;;999.90;;
21034;SDS011;10676;50.848;3.272;2023-04-06T02:18:01;1999.90;;;999.90;;
21034;SDS011;10676;50.848;3.272;2023-04-06T02:20:26;1999.90;;;999.90;;
21034;SDS011;10676;50.848;3.272;2023-04-06T02:22:52;1999.90;;;999.90;;
21034;SDS011;10676;50.848;3.272;2023-04-06T02:25:18;1999.90;;;999.90;;
21034;SDS011;10676;50.848;3.272;2023-04-06T02:27:43;1999.90;;;999.90;;
21034;SDS011;10676;50.848;3.272;2023-04-06T02:30:09;1999.90;;;999.90;;
21034;SDS011;10676;50.848;3.272;2023-04-06T02:32:35;1999.90;;;999.90;;
21034;SDS011;10676;50.848;3.272;2023-04-06T02:35:01;1999.90;;;999.90;;
21034;SDS011;10676;50.848;3.272;2023-04-06T02:37:26;1999.90;;;999.90;;
21034;SDS011;10676;50.848;3.272;2023-04-06T02:39:52;1999.90;;;999.90;;
21034;SDS011;10676;50.848;3.272;2023-04-06T02:42:18;1999.90;;;999.90;;
21034;SDS011;10676;50.848;3.272;2023-04-06T02:44:43;1999.90;;;999.90;;
21034;SDS011;10676;50.848;3.272;2023-04-06T02:47:09;1999.90;;;999.90;;
21034;SDS011;10676;50.848;3.272;2023-04-06T02:49:35;1999.90;;;999.90;;
21034;SDS011;10676;50.848;3.272;2023-04-06T02:52:01;1999.90;;;999.90;;
21034;SDS011;10676;50.848;3.272;2023-04-06T02:54:27;1999.90;;;999.90;;
21034;SDS011;10676;50.848;3.272;2023-04-06T02:56:53;1999.90;;;999.90;;
21034;SDS011;10676;50.848;3.272;2023-04-06T02:59:18;1999.90;;;999.90;;
21034;SDS011;10676;50.848;3.272;2023-04-06T03:01:44;1999.90;;;999.90;;
21034;SDS011;10676;50.848;3.272;2023-04-06T03:04:10;1999.90;;;999.90;;
21034;SDS011;10676;50.848;3.272;2023-04-06T03:06:36;1999.90;;;999.90;;
21034;SDS011;10676;50.848;3.272;2023-04-06T03:09:02;1999.90;;;999.90;;
21034;SDS011;10676;50.848;3.272;2023-04-06T03:11:28;1999.90;;;999.90;;
21034;SDS011;10676;50.848;3.272;2023-04-06T03:13:53;1999.90;;;999.90;;
21034;SDS011;10676;50.848;3.272;2023-04-06T03:16:19;1999.90;;;999.90;;
21034;SDS011;10676;50.848;3.272;2023-04-06T03:18:45;1999.90;;;999.90;;
21034;SDS011;10676;50.848;3.272;2023-04-06T03:21:12;1999.90;;;999.90;;
21034;SDS011;10676;50.848;3.272;2023-04-06T03:23:40;1999.90;;;999.90;;
21034;SDS011;10676;50.848;3.272;2023-04-06T03:26:06;1999.90;;;999.90;;
21034;SDS011;10676;50.848;3.272;2023-04-06T03:28:32;1999.90;;;999.90;;
21034;SDS011;10676;50.848;3.272;2023-04-06T03:30:58;1999.90;;;999.90;;
21034;SDS011;10676;50.848;3.272;2023-04-06T03:33:23;1999.90;;;999.90;;
21034;SDS011;10676;50.848;3.272;2023-04-06T03:35:52;1999.90;;;999.90;;
21034;SDS011;10676;50.848;3.272;2023-04-06T03:38:18;1999.90;;;999.90;;
21034;SDS011;10676;50.848;3.272;2023-04-06T03:40:43;1999.90;;;999.90;;
21034;SDS011;10676;50.848;3.272;2023-04-06T03:43:09;1999.90;;;999.90;;
21034;SDS011;10676;50.848;3.272;2023-04-06T03:45:35;1999.90;;;999.90;;
21034;SDS011;10676;50.848;3.272;2023-04-06T03:48:00;1999.90;;;999.90;;
21034;SDS011;10676;50.848;3.272;2023-04-06T03:50:26;1999.90;;;999.90;;
21034;SDS011;10676;50.848;3.272;2023-04-06T03:52:52;1999.90;;;999.90;;
21034;SDS011;10676;50.848;3.272;2023-04-06T03:55:17;1999.90;;;999.90;;
21034;SDS011;10676;50.848;3.272;2023-04-06T03:57:43;38.93;;;33.10;;
21034;SDS011;10676;50.848;3.272;2023-04-06T04:00:09;40.97;;;32.43;;
21034;SDS011;10676;50.848;3.272;2023-04-06T04:02:35;39.23;;;32.47;;
21034;SDS011;10676;50.848;3.272;2023-04-06T04:05:00;44.07;;;31.63;;
21034;SDS011;10676;50.848;3.272;2023-04-06T04:07:26;34.77;;;30.37;;
21034;SDS011;10676;50.848;3.272;2023-04-06T04:09:52;35.60;;;30.67;;
21034;SDS011;10676;50.848;3.272;2023-04-06T04:12:18;35.13;;;31.27;;
21034;SDS011;10676;50.848;3.272;2023-04-06T04:14:43;35.73;;;28.13;;
21034;SDS011;10676;50.848;3.272;2023-04-06T04:17:09;36.00;;;25.13;;
21034;SDS011;10676;50.848;3.272;2023-04-06T04:19:35;35.33;;;27.03;;
21034;SDS011;10676;50.848;3.272;2023-04-06T04:22:00;33.83;;;24.83;;
21034;SDS011;10676;50.848;3.272;2023-04-06T04:24:29;34.73;;;23.77;;
21034;SDS011;10676;50.848;3.272;2023-04-06T04:26:55;31.07;;;23.97;;
21034;SDS011;10676;50.848;3.272;2023-04-06T04:29:21;28.97;;;22.63;;
21034;SDS011;10676;50.848;3.272;2023-04-06T04:31:47;27.10;;;22.90;;
21034;SDS011;10676;50.848;3.272;2023-04-06T04:34:14;29.40;;;24.13;;
21034;SDS011;10676;50.848;3.272;2023-04-06T04:36:45;26.90;;;24.03;;
21034;SDS011;10676;50.848;3.272;2023-04-06T04:39:14;26.53;;;23.17;;
21034;SDS011;10676;50.848;3.272;2023-04-06T04:41:40;26.13;;;23.47;;
21034;SDS011;10676;50.848;3.272;2023-04-06T04:44:06;27.83;;;24.77;;
21034;SDS011;10676;50.848;3.272;2023-04-06T04:46:32;24.93;;;22.50;;
21034;SDS011;10676;50.848;3.272;2023-04-06T04:48:58;25.57;;;23.03;;
21034;SDS011;10676;50.848;3.272;2023-04-06T04:51:24;25.03;;;22.63;;
21034;SDS011;10676;50.848;3.272;2023-04-06T04:53:50;24.50;;;22.23;;
21034;SDS011;10676;50.848;3.272;2023-04-06T04:56:16;22.13;;;19.83;;
21034;SDS011;10676;50.848;3.272;2023-04-06T04:58:42;23.60;;;21.43;;
21034;SDS011;10676;50.848;3.272;2023-04-06T05:01:07;21.70;;;19.13;;
21034;SDS011;10676;50.848;3.272;2023-04-06T05:03:33;22.37;;;20.17;;
21034;SDS011;10676;50.848;3.272;2023-04-06T05:06:00;19.63;;;17.53;;
21034;SDS011;10676;50.848;3.272;2023-04-06T05:08:26;18.20;;;16.57;;
21034;SDS011;10676;50.848;3.272;2023-04-06T05:10:52;21.00;;;18.33;;
21034;SDS011;10676;50.848;3.272;2023-04-06T05:13:17;19.13;;;17.27;;
21034;SDS011;10676;50.848;3.272;2023-04-06T05:15:43;18.73;;;16.97;;
21034;SDS011;10676;50.848;3.272;2023-04-06T05:18:09;17.43;;;15.70;;
21034;SDS011;10676;50.848;3.272;2023-04-06T05:20:36;17.33;;;15.63;;
21034;SDS011;10676;50.848;3.272;2023-04-06T05:23:04;17.17;;;15.57;;
21034;SDS011;10676;50.848;3.272;2023-04-06T05:25:30;18.63;;;15.53;;
21034;SDS011;10676;50.848;3.272;2023-04-06T05:27:57;18.23;;;16.30;;
21034;SDS011;10676;50.848;3.272;2023-04-06T05:30:23;18.50;;;16.60;;
21034;SDS011;10676;50.848;3.272;2023-04-06T05:32:48;20.33;;;18.20;;
21034;SDS011;10676;50.848;3.272;2023-04-06T05:35:15;20.23;;;17.97;;
21034;SDS011;10676;50.848;3.272;2023-04-06T05:37:42;22.03;;;19.73;;
21034;SDS011;10676;50.848;3.272;2023-04-06T05:40:08;22.10;;;19.13;;
21034;SDS011;10676;50.848;3.272;2023-04-06T05:42:37;22.37;;;19.53;;
21034;SDS011;10676;50.848;3.272;2023-04-06T05:45:07;21.93;;;19.47;;
21034;SDS011;10676;50.848;3.272;2023-04-06T05:47:34;21.63;;;19.33;;
21034;SDS011;10676;50.848;3.272;2023-04-06T05:50:00;21.60;;;19.40;;
21034;SDS011;10676;50.848;3.272;2023-04-06T05:52:26;25.93;;;20.13;;
21034;SDS011;10676;50.848;3.272;2023-04-06T05:54:51;22.57;;;20.23;;
21034;SDS011;10676;50.848;3.272;2023-04-06T05:57:17;23.07;;;20.17;;
21034;SDS011;10676;50.848;3.272;2023-04-06T05:59:43;28.53;;;21.40;;
21034;SDS011;10676;50.848;3.272;2023-04-06T06:02:09;25.23;;;22.13;;
21034;SDS011;10676;50.848;3.272;2023-04-06T06:04:34;28.00;;;21.57;;
21034;SDS011;10676;50.848;3.272;2023-04-06T06:07:00;26.50;;;21.57;;
21034;SDS011;10676;50.848;3.272;2023-04-06T06:09:26;25.63;;;22.43;;
21034;SDS011;10676;50.848;3.272;2023-04-06T06:11:51;26.83;;;21.73;;
21034;SDS011;10676;50.848;3.272;2023-04-06T06:14:17;25.93;;;22.40;;
21034;SDS011;10676;50.848;3.272;2023-04-06T06:16:43;26.10;;;22.47;;
21034;SDS011;10676;50.848;3.272;2023-04-06T06:19:08;26.23;;;21.87;;
21034;SDS011;10676;50.848;3.272;2023-04-06T06:21:34;24.97;;;22.03;;
21034;SDS011;10676;50.848;3.272;2023-04-06T06:24:00;40.13;;;24.00;;
21034;SDS011;10676;50.848;3.272;2023-04-06T06:26:26;31.00;;;23.43;;
21034;SDS011;10676;50.848;3.272;2023-04-06T06:28:51;30.73;;;23.77;;
21034;SDS011;10676;50.848;3.272;2023-04-06T06:31:17;26.57;;;22.63;;
21034;SDS011;10676;50.848;3.272;2023-04-06T06:33:45;34.47;;;23.50;;
21034;SDS011;10676;50.848;3.272;2023-04-06T06:36:12;28.90;;;23.93;;
21034;SDS011;10676;50.848;3.272;2023-04-06T06:38:38;32.50;;;24.60;;
21034;SDS011;10676;50.848;3.272;2023-04-06T06:41:04;30.07;;;22.03;;
21034;SDS011;10676;50.848;3.272;2023-04-06T06:43:29;30.53;;;23.27;;
21034;SDS011;10676;50.848;3.272;2023-04-06T06:45:55;28.30;;;23.07;;
21034;SDS011;10676;50.848;3.272;2023-04-06T06:48:21;29.90;;;23.10;;
21034;SDS011;10676;50.848;3.272;2023-04-06T06:50:47;29.77;;;21.37;;
21034;SDS011;10676;50.848;3.272;2023-04-06T06:53:13;27.60;;;24.47;;
21034;SDS011;10676;50.848;3.272;2023-04-06T06:55:39;26.97;;;22.17;;
21034;SDS011;10676;50.848;3.272;2023-04-06T06:58:05;28.10;;;22.63;;
21034;SDS011;10676;50.848;3.272;2023-04-06T07:00:32;32.70;;;24.03;;
21034;SDS011;10676;50.848;3.272;2023-04-06T07:02:57;26.70;;;21.90;;
21034;SDS011;10676;50.848;3.272;2023-04-06T07:05:23;25.67;;;20.67;;
21034;SDS011;10676;50.848;3.272;2023-04-06T07:07:49;25.80;;;21.10;;
21034;SDS011;10676;50.848;3.272;2023-04-06T07:10:14;25.53;;;21.67;;
21034;SDS011;10676;50.848;3.272;2023-04-06T07:12:40;24.57;;;21.47;;
21034;SDS011;10676;50.848;3.272;2023-04-06T07:15:06;26.27;;;21.17;;
21034;SDS011;10676;50.848;3.272;2023-04-06T07:17:32;25.40;;;20.53;;
21034;SDS011;10676;50.848;3.272;2023-04-06T07:19:57;30.07;;;24.23;;
21034;SDS011;10676;50.848;3.272;2023-04-06T07:22:23;29.97;;;21.43;;
21034;SDS011;10676;50.848;3.272;2023-04-06T07:24:49;25.50;;;21.67;;
21034;SDS011;10676;50.848;3.272;2023-04-06T07:27:15;28.67;;;23.00;;
21034;SDS011;10676;50.848;3.272;2023-04-06T07:29:42;27.40;;;22.52;;
21034;SDS011;10676;50.848;3.272;2023-04-06T07:32:08;31.27;;;23.07;;
21034;SDS011;10676;50.848;3.272;2023-04-06T07:34:33;28.10;;;21.75;;
21034;SDS011;10676;50.848;3.272;2023-04-06T07:36:59;29.52;;;24.17;;
21034;SDS011;10676;50.848;3.272;2023-04-06T07:39:25;34.13;;;22.92;;
21034;SDS011;10676;50.848;3.272;2023-04-06T07:41:51;32.63;;;22.00;;
21034;SDS011;10676;50.848;3.272;2023-04-06T07:44:17;27.88;;;21.02;;
21034;SDS011;10676;50.848;3.272;2023-04-06T07:46:43;28.75;;;21.60;;
21034;SDS011;10676;50.848;3.272;2023-04-06T07:49:09;24.30;;;20.35;;
21034;SDS011;10676;50.848;3.272;2023-04-06T07:51:36;34.65;;;22.08;;
21034;SDS011;10676;50.848;3.272;2023-04-06T07:54:02;28.90;;;21.88;;
21034;SDS011;10676;50.848;3.272;2023-04-06T07:56:28;29.00;;;21.40;;
21034;SDS011;10676;50.848;3.272;2023-04-06T07:58:53;34.25;;;21.45;;
21034;SDS011;10676;50.848;3.272;2023-04-06T08:01:23;32.63;;;24.02;;
21034;SDS011;10676;50.848;3.272;2023-04-06T08:03:49;27.30;;;22.38;;
21034;SDS011;10676;50.848;3.272;2023-04-06T08:06:15;31.23;;;23.33;;
21034;SDS011;10676;50.848;3.272;2023-04-06T08:08:42;36.80;;;26.45;;
21034;SDS011;10676;50.848;3.272;2023-04-06T08:11:08;33.63;;;24.42;;
21034;SDS011;10676;50.848;3.272;2023-04-06T08:13:34;34.38;;;24.23;;
21034;SDS011;10676;50.848;3.272;2023-04-06T08:16:00;36.55;;;26.00;;
21034;SDS011;10676;50.848;3.272;2023-04-06T08:18:26;31.70;;;23.92;;
21034;SDS011;10676;50.848;3.272;2023-04-06T08:20:52;31.25;;;24.13;;
21034;SDS011;10676;50.848;3.272;2023-04-06T08:23:19;37.08;;;28.45;;
21034;SDS011;10676;50.848;3.272;2023-04-06T08:25:45;35.65;;;26.45;;
21034;SDS011;10676;50.848;3.272;2023-04-06T08:28:10;36.35;;;30.83;;
21034;SDS011;10676;50.848;3.272;2023-04-06T08:30:37;32.03;;;25.77;;
21034;SDS011;10676;50.848;3.272;2023-04-06T08:33:05;32.33;;;24.55;;
21034;SDS011;10676;50.848;3.272;2023-04-06T08:35:31;37.65;;;27.45;;
21034;SDS011;10676;50.848;3.272;2023-04-06T08:37:57;31.42;;;22.88;;
21034;SDS011;10676;50.848;3.272;2023-04-06T08:40:22;33.88;;;24.45;;
21034;SDS011;10676;50.848;3.272;2023-04-06T08:42:50;33.90;;;24.25;;
21034;SDS011;10676;50.848;3.272;2023-04-06T08:45:19;34.65;;;24.80;;
21034;SDS011;10676;50.848;3.272;2023-04-06T08:47:46;33.42;;;25.65;;
21034;SDS011;10676;50.848;3.272;2023-04-06T08:50:14;139.57;;;128.80;;
21034;SDS011;10676;50.848;3.272;2023-04-06T08:52:43;60.55;;;55.05;;
21034;SDS011;10676;50.848;3.272;2023-04-06T08:55:11;33.97;;;26.98;;
21034;SDS011;10676;50.848;3.272;2023-04-06T08:57:37;36.50;;;23.90;;
21034;SDS011;10676;50.848;3.272;2023-04-06T09:00:03;36.58;;;27.50;;
21034;SDS011;10676;50.848;3.272;2023-04-06T09:02:29;36.55;;;27.42;;
21034;SDS011;10676;50.848;3.272;2023-04-06T09:04:55;37.03;;;27.42;;
21034;SDS011;10676;50.848;3.272;2023-04-06T09:07:22;37.58;;;27.63;;
21034;SDS011;10676;50.848;3.272;2023-04-06T09:09:49;37.05;;;26.23;;
21034;SDS011;10676;50.848;3.272;2023-04-06T09:15:06;36.80;;;26.35;;
21034;SDS011;10676;50.848;3.272;2023-04-06T09:17:43;33.63;;;25.38;;
21034;SDS011;10676;50.848;3.272;2023-04-06T09:20:09;32.42;;;26.05;;
21034;SDS011;10676;50.848;3.272;2023-04-06T09:22:36;36.95;;;26.58;;
21034;SDS011;10676;50.848;3.272;2023-04-06T09:25:03;37.08;;;26.88;;
21034;SDS011;10676;50.848;3.272;2023-04-06T09:27:30;33.92;;;27.20;;
21034;SDS011;10676;50.848;3.272;2023-04-06T09:32:29;37.20;;;26.75;;
21034;SDS011;10676;50.848;3.272;2023-04-06T09:35:05;34.03;;;26.65;;
21034;SDS011;10676;50.848;3.272;2023-04-06T09:37:31;33.80;;;25.75;;
21034;SDS011;10676;50.848;3.272;2023-04-06T09:40:03;35.92;;;27.45;;
21034;SDS011;10676;50.848;3.272;2023-04-06T09:42:32;32.30;;;24.77;;
21034;SDS011;10676;50.848;3.272;2023-04-06T09:44:59;30.70;;;25.17;;
21034;SDS011;10676;50.848;3.272;2023-04-06T09:47:30;32.97;;;26.05;;
21034;SDS011;10676;50.848;3.272;2023-04-06T09:49:59;32.92;;;25.33;;
21034;SDS011;10676;50.848;3.272;2023-04-06T09:52:58;35.83;;;27.13;;
21034;SDS011;10676;50.848;3.272;2023-04-06T09:58:07;24.92;;;22.17;;
21034;SDS011;10676;50.848;3.272;2023-04-06T10:00:43;27.55;;;22.38;;
21034;SDS011;10676;50.848;3.272;2023-04-06T10:05:46;27.60;;;23.55;;
21034;SDS011;10676;50.848;3.272;2023-04-06T10:08:29;25.85;;;23.05;;
21034;SDS011;10676;50.848;3.272;2023-04-06T10:10:59;25.45;;;22.95;;
21034;SDS011;10676;50.848;3.272;2023-04-06T10:13:25;24.88;;;22.40;;
21034;SDS011;10676;50.848;3.272;2023-04-06T10:15:52;23.02;;;20.77;;
21034;SDS011;10676;50.848;3.272;2023-04-06T10:18:20;24.55;;;22.02;;
21034;SDS011;10676;50.848;3.272;2023-04-06T10:20:51;25.25;;;22.73;;
21034;SDS011;10676;50.848;3.272;2023-04-06T10:23:26;27.10;;;24.50;;
21034;SDS011;10676;50.848;3.272;2023-04-06T10:25:58;24.40;;;22.02;;
21034;SDS011;10676;50.848;3.272;2023-04-06T10:28:25;24.50;;;22.23;;
21034;SDS011;10676;50.848;3.272;2023-04-06T10:30:59;24.35;;;22.10;;
21034;SDS011;10676;50.848;3.272;2023-04-06T10:33:26;26.48;;;23.98;;
21034;SDS011;10676;50.848;3.272;2023-04-06T10:35:52;25.15;;;22.85;;
21034;SDS011;10676;50.848;3.272;2023-04-06T10:38:20;25.65;;;23.48;;
21034;SDS011;10676;50.848;3.272;2023-04-06T10:40:47;25.80;;;23.33;;
21034;SDS011;10676;50.848;3.272;2023-04-06T10:43:17;25.73;;;23.33;;
21034;SDS011;10676;50.848;3.272;2023-04-06T10:45:44;26.63;;;24.08;;
21034;SDS011;10676;50.848;3.272;2023-04-06T10:48:19;27.90;;;25.02;;
21034;SDS011;10676;50.848;3.272;2023-04-06T10:50:47;27.73;;;24.98;;
21034;SDS011;10676;50.848;3.272;2023-04-06T10:53:24;29.35;;;26.30;;
21034;SDS011;10676;50.848;3.272;2023-04-06T10:55:51;31.15;;;27.75;;
21034;SDS011;10676;50.848;3.272;2023-04-06T10:58:18;32.30;;;28.40;;
21034;SDS011;10676;50.848;3.272;2023-04-06T11:00:47;31.73;;;28.33;;
21034;SDS011;10676;50.848;3.272;2023-04-06T11:03:14;31.13;;;27.77;;
21034;SDS011;10676;50.848;3.272;2023-04-06T11:05:47;32.55;;;29.13;;
21034;SDS011;10676;50.848;3.272;2023-04-06T11:08:24;32.20;;;28.85;;
21034;SDS011;10676;50.848;3.272;2023-04-06T11:11:07;32.40;;;28.75;;
21034;SDS011;10676;50.848;3.272;2023-04-06T11:16:19;33.17;;;29.58;;
21034;SDS011;10676;50.848;3.272;2023-04-06T11:18:54;33.42;;;28.95;;
21034;SDS011;10676;50.848;3.272;2023-04-06T11:21:36;38.40;;;29.50;;
21034;SDS011;10676;50.848;3.272;2023-04-06T11:24:11;36.17;;;29.00;;
21034;SDS011;10676;50.848;3.272;2023-04-06T11:29:05;33.15;;;28.83;;
21034;SDS011;10676;50.848;3.272;2023-04-06T11:31:31;34.03;;;28.30;;
21034;SDS011;10676;50.848;3.272;2023-04-06T11:34:08;32.75;;;28.13;;
21034;SDS011;10676;50.848;3.272;2023-04-06T11:36:35;32.08;;;27.42;;
21034;SDS011;10676;50.848;3.272;2023-04-06T11:39:02;30.42;;;26.77;;
21034;SDS011;10676;50.848;3.272;2023-04-06T11:41:28;33.65;;;27.98;;
21034;SDS011;10676;50.848;3.272;2023-04-06T11:43:55;29.75;;;26.48;;
21034;SDS011;10676;50.848;3.272;2023-04-06T11:46:21;30.65;;;25.25;;
21034;SDS011;10676;50.848;3.272;2023-04-06T11:48:47;29.30;;;25.15;;
21034;SDS011;10676;50.848;3.272;2023-04-06T11:51:12;27.33;;;23.20;;
21034;SDS011;10676;50.848;3.272;2023-04-06T11:53:48;30.75;;;24.48;;
21034;SDS011;10676;50.848;3.272;2023-04-06T11:56:28;24.65;;;21.75;;
21034;SDS011;10676;50.848;3.272;2023-04-06T11:58:55;26.75;;;23.02;;
21034;SDS011;10676;50.848;3.272;2023-04-06T12:01:22;25.73;;;22.17;;
21034;SDS011;10676;50.848;3.272;2023-04-06T12:03:49;25.17;;;22.58;;
21034;SDS011;10676;50.848;3.272;2023-04-06T12:06:16;23.45;;;20.48;;
21034;SDS011;10676;50.848;3.272;2023-04-06T12:08:42;22.60;;;20.17;;
21034;SDS011;10676;50.848;3.272;2023-04-06T12:11:08;22.08;;;19.98;;
21034;SDS011;10676;50.848;3.272;2023-04-06T12:13:33;23.23;;;18.98;;
21034;SDS011;10676;50.848;3.272;2023-04-06T12:15:59;22.15;;;19.60;;
21034;SDS011;10676;50.848;3.272;2023-04-06T12:18:25;24.90;;;19.95;;
21034;SDS011;10676;50.848;3.272;2023-04-06T12:20:51;23.95;;;20.15;;
21034;SDS011;10676;50.848;3.272;2023-04-06T12:23:18;22.17;;;19.63;;
21034;SDS011;10676;50.848;3.272;2023-04-06T12:25:44;22.95;;;19.10;;
21034;SDS011;10676;50.848;3.272;2023-04-06T12:28:10;24.52;;;19.95;;
21034;SDS011;10676;50.848;3.272;2023-04-06T12:30:36;22.50;;;18.27;;
21034;SDS011;10676;50.848;3.272;2023-04-06T12:33:02;21.20;;;19.00;;
21034;SDS011;10676;50.848;3.272;2023-04-06T12:35:27;23.92;;;18.80;;
21034;SDS011;10676;50.848;3.272;2023-04-06T12:37:53;22.52;;;19.25;;
21034;SDS011;10676;50.848;3.272;2023-04-06T12:40:19;23.33;;;18.92;;
21034;SDS011;10676;50.848;3.272;2023-04-06T12:42:46;22.27;;;19.08;;
21034;SDS011;10676;50.848;3.272;2023-04-06T12:45:11;19.67;;;17.38;;
21034;SDS011;10676;50.848;3.272;2023-04-06T12:47:37;19.95;;;17.88;;
21034;SDS011;10676;50.848;3.272;2023-04-06T12:50:04;20.05;;;17.95;;
21034;SDS011;10676;50.848;3.272;2023-04-06T12:52:31;20.23;;;17.73;;
21034;SDS011;10676;50.848;3.272;2023-04-06T12:54:59;21.02;;;18.33;;
21034;SDS011;10676;50.848;3.272;2023-04-06T12:57:26;20.38;;;17.45;;
21034;SDS011;10676;50.848;3.272;2023-04-06T12:59:52;17.70;;;15.85;;
21034;SDS011;10676;50.848;3.272;2023-04-06T13:02:18;23.63;;;17.27;;
21034;SDS011;10676;50.848;3.272;2023-04-06T13:04:45;20.80;;;16.25;;
21034;SDS011;10676;50.848;3.272;2023-04-06T13:07:11;20.05;;;16.70;;
21034;SDS011;10676;50.848;3.272;2023-04-06T13:09:37;22.30;;;16.15;;
21034;SDS011;10676;50.848;3.272;2023-04-06T13:12:02;20.95;;;15.95;;
21034;SDS011;10676;50.848;3.272;2023-04-06T13:14:28;22.15;;;16.33;;
21034;SDS011;10676;50.848;3.272;2023-04-06T13:16:54;21.98;;;17.13;;
21034;SDS011;10676;50.848;3.272;2023-04-06T13:19:20;19.30;;;16.63;;
21034;SDS011;10676;50.848;3.272;2023-04-06T13:21:46;21.20;;;16.08;;
21034;SDS011;10676;50.848;3.272;2023-04-06T13:24:12;21.40;;;15.75;;
21034;SDS011;10676;50.848;3.272;2023-04-06T13:26:38;19.52;;;15.30;;
21034;SDS011;10676;50.848;3.272;2023-04-06T13:29:03;24.80;;;16.58;;
21034;SDS011;10676;50.848;3.272;2023-04-06T13:31:29;21.25;;;16.38;;
21034;SDS011;10676;50.848;3.272;2023-04-06T13:33:55;22.25;;;15.45;;
21034;SDS011;10676;50.848;3.272;2023-04-06T13:36:20;20.02;;;17.85;;
21034;SDS011;10676;50.848;3.272;2023-04-06T13:38:49;25.40;;;15.93;;
21034;SDS011;10676;50.848;3.272;2023-04-06T13:41:21;21.02;;;14.50;;
21034;SDS011;10676;50.848;3.272;2023-04-06T13:43:47;23.50;;;15.75;;
21034;SDS011;10676;50.848;3.272;2023-04-06T13:46:13;20.85;;;14.23;;
21034;SDS011;10676;50.848;3.272;2023-04-06T13:48:39;24.00;;;12.68;;
21034;SDS011;10676;50.848;3.272;2023-04-06T13:51:12;20.05;;;12.70;;
21034;SDS011;10676;50.848;3.272;2023-04-06T13:53:39;22.17;;;12.88;;
21034;SDS011;10676;50.848;3.272;2023-04-06T13:56:05;26.10;;;11.02;;
21034;SDS011;10676;50.848;3.272;2023-04-06T13:58:32;18.92;;;9.70;;
21034;SDS011;10676;50.848;3.272;2023-04-06T14:03:31;21.70;;;7.88;;
21034;SDS011;10676;50.848;3.272;2023-04-06T14:05:58;13.38;;;9.45;;
21034;SDS011;10676;50.848;3.272;2023-04-06T14:08:23;10.70;;;6.93;;
21034;SDS011;10676;50.848;3.272;2023-04-06T14:10:49;23.88;;;8.95;;
21034;SDS011;10676;50.848;3.272;2023-04-06T14:13:15;17.90;;;9.15;;
21034;SDS011;10676;50.848;3.272;2023-04-06T14:15:41;17.25;;;8.23;;
21034;SDS011;10676;50.848;3.272;2023-04-06T14:18:08;14.32;;;7.70;;
21034;SDS011;10676;50.848;3.272;2023-04-06T14:20:33;17.92;;;9.02;;
21034;SDS011;10676;50.848;3.272;2023-04-06T14:23:03;12.15;;;8.60;;
21034;SDS011;10676;50.848;3.272;2023-04-06T14:25:28;19.30;;;8.95;;
21034;SDS011;10676;50.848;3.272;2023-04-06T14:27:59;9.77;;;8.77;;